Strona główna
METAR-TAF:

METAR-TAF

Lotnisko :

Yankton, Dakota Południowa, Stany Zjednoczone

Szerokość geograficzna: 42-55N, Długość geograficzna: 097-23W, wysokość: 398 m

Aktualna obserwacja pogody

Raport powstał 16 minut temu, godzina 04:56 UTC
Wiatr 5 kt od północno-północny wschód
Temperatura 19°C
Wilgotność 88%
Ciśnienie 1016 hPa
Widzialność: 16.1 km
bezchmurnie

METAR: KYKN 180456Z AUTO 02005KT 10SM CLR 19/17 A3001 RMK AO2 SLP170 T01890167

czas: 00:12 (05:12 UTC)


TAF: brakujący

Obserwacja i prognoza pogody dla ponad 4000 lotnisk (raport METAR i TAF).

Dostępne stacje oznaczono żółtymi i czerwonymi punktami na mapie.

Najedź kursorem aby zobaczyć nazwę stacji.

Kliknij aby zobaczyć obserwacje i prognozy pogody.

Aby zmienić mapę: kliknij na zielony przycisk z czarnym krzyżykiem, aby powiększyć; na zielony przycisk z myślnikiem, aby pomniejszyć; na zielone strzałki, aby przejść do map sąsiednich.


METAR-TAF: